createdAt,value
2023-04-16T00:01:30.520Z,89.03
2023-04-16T00:04:01.199Z,89.03
2023-04-16T00:06:53.156Z,89.02
2023-04-16T00:10:02.385Z,88.89
2023-04-16T00:13:05.978Z,88.66
2023-04-16T00:16:15.635Z,88.88
2023-04-16T00:19:12.179Z,88.76
2023-04-16T00:22:17.932Z,88.68
2023-04-16T00:25:34.794Z,88.60
2023-04-16T00:28:19.518Z,88.69
2023-04-16T00:30:50.480Z,88.75
2023-04-16T00:34:21.104Z,88.64
2023-04-16T00:37:30.557Z,88.80
2023-04-16T00:41:05.045Z,88.69
2023-04-16T00:44:26.904Z,88.94
2023-04-16T00:47:31.858Z,88.82
2023-04-16T00:50:59.741Z,88.85
2023-04-16T00:53:43.815Z,88.86
2023-04-16T00:56:20.878Z,88.90
2023-04-16T00:59:17.357Z,88.92
2023-04-16T01:01:46.667Z,88.91
2023-04-16T01:04:16.328Z,88.97
2023-04-16T01:06:45.062Z,88.96
2023-04-16T01:09:15.484Z,89.04
2023-04-16T01:11:44.192Z,88.99
2023-04-16T01:14:44.633Z,89.03
2023-04-16T01:17:15.944Z,88.95
2023-04-16T01:20:05.430Z,89.02
2023-04-16T01:22:54.996Z,88.77
2023-04-16T01:25:25.827Z,88.76
2023-04-16T01:28:08.845Z,88.76
2023-04-16T01:31:03.616Z,88.67
2023-04-16T01:33:56.298Z,88.13
2023-04-16T01:36:25.656Z,88.15
2023-04-16T01:39:08.094Z,88.17
2023-04-16T01:41:41.759Z,88.29
2023-04-16T01:44:13.983Z,88.34
2023-04-16T01:46:45.771Z,88.33
2023-04-16T01:50:35.788Z,88.45
2023-04-16T01:53:33.834Z,88.19
2023-04-16T01:57:02.533Z,88.29
2023-04-16T01:59:48.182Z,87.78
2023-04-16T02:02:30.790Z,88.05
2023-04-16T02:05:46.166Z,88.30
2023-04-16T02:09:30.728Z,88.19
2023-04-16T02:12:16.550Z,88.24
2023-04-16T02:15:06.009Z,88.54
2023-04-16T02:18:30.376Z,88.57
2023-04-16T02:21:34.094Z,88.66
2023-04-16T02:25:02.470Z,88.56
2023-04-16T02:28:35.536Z,88.77
2023-04-16T02:31:35.850Z,88.73
2023-04-16T02:35:17.698Z,88.93
2023-04-16T02:38:11.086Z,88.86
2023-04-16T02:41:56.140Z,88.87
2023-04-16T02:44:25.149Z,88.66
2023-04-16T02:48:20.272Z,88.49
2023-04-16T02:52:15.551Z,87.58
2023-04-16T02:54:45.464Z,86.97
2023-04-16T02:57:39.050Z,87.38
2023-04-16T03:00:24.738Z,86.64
2023-04-16T03:03:31.853Z,86.70
2023-04-16T03:06:55.226Z,86.37
2023-04-16T03:09:44.450Z,86.39
2023-04-16T03:12:57.774Z,86.50
2023-04-16T03:16:00.257Z,86.83
2023-04-16T03:18:44.299Z,86.56
2023-04-16T03:21:50.936Z,86.36
2023-04-16T03:24:34.684Z,86.42
2023-04-16T03:27:04.885Z,86.29
2023-04-16T03:29:34.034Z,86.66
2023-04-16T03:32:02.838Z,86.91
2023-04-16T03:34:33.256Z,86.95
2023-04-16T03:37:57.980Z,86.94
2023-04-16T03:40:33.494Z,87.23
2023-04-16T03:43:02.762Z,87.23
2023-04-16T03:45:49.318Z,87.42
2023-04-16T03:49:12.582Z,87.49
2023-04-16T03:51:50.155Z,87.38
2023-04-16T03:54:21.312Z,87.31
2023-04-16T03:56:54.496Z,87.50
2023-04-16T03:59:22.975Z,87.92
2023-04-16T04:01:52.458Z,87.81
2023-04-16T04:04:21.500Z,87.78
2023-04-16T04:06:50.271Z,87.87
2023-04-16T04:09:21.202Z,87.75
2023-04-16T04:11:52.359Z,87.57
2023-04-16T04:14:21.446Z,87.42
2023-04-16T04:16:50.234Z,87.55
2023-04-16T04:19:19.025Z,87.11
2023-04-16T04:21:47.801Z,86.72
2023-04-16T04:24:18.016Z,87.18
2023-04-16T04:26:47.219Z,87.68
2023-04-16T04:29:16.542Z,87.25
2023-04-16T04:31:45.905Z,87.34
2023-04-16T04:34:14.807Z,87.11
2023-04-16T04:36:43.609Z,87.04
2023-04-16T04:39:15.355Z,87.07
2023-04-16T04:41:44.780Z,87.10
2023-04-16T04:44:13.491Z,86.95
2023-04-16T04:46:43.161Z,87.12
2023-04-16T04:49:11.841Z,87.10
2023-04-16T04:51:40.946Z,87.33
2023-04-16T04:54:09.753Z,86.84
2023-04-16T04:56:46.413Z,87.10
2023-04-16T04:59:15.286Z,87.21
2023-04-16T05:01:43.866Z,87.72
2023-04-16T05:04:12.851Z,87.58
2023-04-16T05:06:41.749Z,87.48
2023-04-16T05:09:14.433Z,86.56
2023-04-16T05:11:43.231Z,86.58
2023-04-16T05:14:12.343Z,87.11
2023-04-16T05:16:41.223Z,87.39
2023-04-16T05:19:10.383Z,87.71
2023-04-16T05:21:39.205Z,87.65
2023-04-16T05:24:07.875Z,87.70
2023-04-16T05:26:36.494Z,88.07
2023-04-16T05:29:05.352Z,88.18
2023-04-16T05:31:33.940Z,88.27
2023-04-16T05:34:03.176Z,87.71
2023-04-16T05:36:31.819Z,87.06
2023-04-16T05:39:00.622Z,87.33
2023-04-16T05:41:29.651Z,88.36
2023-04-16T05:43:58.922Z,88.39
2023-04-16T05:46:27.729Z,88.00
2023-04-16T05:48:56.379Z,88.10
2023-04-16T05:51:26.587Z,87.69
2023-04-16T05:54:01.944Z,87.29
2023-04-16T05:56:38.564Z,87.50
2023-04-16T05:59:08.612Z,87.92
2023-04-16T06:01:37.423Z,87.26
2023-04-16T06:04:06.596Z,86.10
2023-04-16T06:07:20.258Z,86.89
2023-04-16T06:09:49.057Z,86.80
2023-04-16T06:12:49.979Z,86.55
2023-04-16T06:15:18.973Z,87.19
2023-04-16T06:17:47.734Z,88.22
2023-04-16T06:20:16.762Z,88.36
2023-04-16T06:22:45.356Z,87.22
2023-04-16T06:26:31.029Z,87.35
2023-04-16T06:29:50.909Z,83.72
2023-04-16T06:32:19.726Z,81.59
2023-04-16T06:34:55.413Z,82.30
2023-04-16T06:37:24.546Z,81.70
2023-04-16T06:40:16.107Z,79.39
2023-04-16T06:43:45.621Z,85.04
2023-04-16T06:46:17.165Z,87.94
2023-04-16T06:49:49.982Z,88.09
2023-04-16T06:52:48.504Z,88.40
2023-04-16T06:56:09.761Z,88.56
2023-04-16T06:58:39.289Z,88.90
2023-04-16T07:01:08.566Z,88.89
2023-04-16T07:04:20.089Z,88.19
2023-04-16T07:06:50.107Z,88.27
2023-04-16T07:09:18.517Z,89.02
2023-04-16T07:12:01.041Z,87.78
2023-04-16T07:14:40.151Z,87.14
2023-04-16T07:17:34.843Z,87.79
2023-04-16T07:20:11.560Z,88.12
2023-04-16T07:22:40.215Z,87.28
2023-04-16T07:25:09.830Z,85.33
2023-04-16T07:27:38.710Z,84.31
2023-04-16T07:30:16.414Z,85.61
2023-04-16T07:32:45.126Z,87.65
2023-04-16T07:35:14.187Z,86.99
2023-04-16T07:44:33.734Z,83.57
2023-04-16T07:55:43.622Z,82.49
2023-04-16T07:58:43.734Z,85.29
2023-04-16T08:01:14.040Z,85.78
2023-04-16T08:04:54.845Z,85.49
2023-04-16T08:07:29.782Z,84.72
2023-04-16T08:09:58.458Z,83.70
2023-04-16T08:12:29.163Z,78.01
2023-04-16T08:14:57.783Z,79.42
2023-04-16T08:17:26.501Z,83.87
2023-04-16T08:21:11.735Z,86.22
2023-04-16T08:23:42.549Z,82.55
2023-04-16T08:26:11.882Z,80.13
2023-04-16T10:18:31.274Z,76.65
2023-04-16T10:21:00.292Z,75.85
2023-04-16T10:24:02.528Z,73.18
2023-04-16T10:27:06.398Z,75.46
2023-04-16T10:30:01.098Z,74.95
2023-04-16T10:32:34.814Z,82.51
2023-04-16T10:35:05.641Z,80.08
2023-04-16T10:37:34.326Z,77.36
2023-04-16T10:40:23.768Z,77.21
2023-04-16T10:42:59.790Z,70.01
2023-04-16T10:45:48.869Z,69.19
2023-04-16T10:48:21.034Z,76.22
2023-04-16T10:50:59.034Z,72.36
2023-04-16T10:53:28.955Z,71.76
2023-04-16T10:56:28.252Z,70.28
2023-04-16T10:58:56.759Z,73.63
2023-04-16T11:01:45.107Z,77.27
2023-04-16T11:04:40.294Z,75.21
2023-04-16T11:07:20.882Z,76.40
2023-04-16T11:10:05.440Z,77.06
2023-04-16T11:12:39.240Z,77.01
2023-04-16T11:15:20.001Z,73.06
2023-04-16T11:17:54.612Z,71.73
2023-04-16T11:20:26.175Z,76.90
2023-04-16T11:22:57.159Z,75.96
2023-04-16T11:25:30.150Z,74.02
2023-04-16T11:29:14.049Z,74.29
2023-04-16T11:32:37.645Z,75.04
2023-04-16T11:36:04.444Z,77.05
2023-04-16T11:38:39.242Z,75.93
2023-04-16T11:41:08.083Z,77.19
2023-04-16T11:44:51.919Z,77.91
2023-04-16T11:47:21.657Z,79.02
2023-04-16T11:49:51.017Z,76.67
2023-04-16T11:52:46.055Z,75.57
2023-04-16T11:55:15.699Z,71.53
2023-04-16T11:57:44.446Z,74.77
2023-04-16T12:00:15.399Z,78.19
2023-04-16T12:02:52.045Z,78.14
2023-04-16T12:05:39.408Z,77.87
2023-04-16T12:08:10.280Z,77.35
2023-04-16T12:10:54.822Z,78.18
2023-04-16T12:13:26.861Z,79.30
2023-04-16T12:15:57.553Z,80.32
2023-04-16T12:18:29.363Z,81.92
2023-04-16T12:21:00.001Z,81.86
2023-04-16T12:23:33.760Z,82.42
2023-04-16T12:29:28.056Z,84.29
2023-04-16T12:34:53.780Z,85.13
2023-04-16T12:37:32.747Z,85.47
2023-04-16T12:40:03.253Z,85.63
2023-04-16T12:42:36.183Z,85.93
2023-04-16T12:45:06.433Z,86.13
2023-04-16T12:47:35.240Z,86.32
2023-04-16T12:50:04.861Z,86.66
2023-04-16T12:52:34.496Z,87.12
2023-04-16T12:55:03.668Z,87.20
2023-04-16T12:57:32.251Z,87.53
2023-04-16T13:00:02.375Z,87.91
2023-04-16T13:02:32.416Z,88.13
2023-04-16T13:05:01.902Z,88.17
2023-04-16T13:07:32.522Z,88.46
2023-04-16T13:10:02.065Z,89.19
2023-04-16T13:12:38.319Z,89.20
2023-04-16T13:15:31.513Z,89.34
2023-04-16T13:18:01.577Z,89.59
2023-04-16T13:20:33.449Z,89.59
2023-04-16T13:23:05.344Z,89.72
2023-04-16T13:25:35.830Z,90.07
2023-04-16T13:28:05.689Z,90.18
2023-04-16T13:30:36.369Z,90.20
2023-04-16T13:33:06.934Z,90.21
2023-04-16T13:35:36.123Z,90.24
2023-04-16T13:38:05.575Z,90.31
2023-04-16T13:40:34.335Z,90.50
2023-04-16T13:43:02.964Z,90.58
2023-04-16T13:45:32.468Z,90.66
2023-04-16T13:48:01.289Z,90.72
2023-04-16T13:54:09.294Z,90.66
2023-04-16T13:56:38.372Z,90.85
2023-04-16T13:59:18.150Z,90.80
2023-04-16T14:01:57.861Z,90.80
2023-04-16T14:04:50.611Z,90.87
2023-04-16T14:07:21.872Z,90.79
2023-04-16T14:10:16.044Z,90.83
2023-04-16T14:12:48.219Z,90.72
2023-04-16T14:15:17.510Z,90.81
2023-04-16T14:17:49.603Z,90.80
2023-04-16T14:20:18.268Z,90.83
2023-04-16T14:22:47.161Z,90.85
2023-04-16T14:25:16.452Z,90.94
2023-04-16T14:27:52.515Z,91.24
2023-04-16T14:30:46.698Z,91.38
2023-04-16T14:33:26.428Z,91.46
2023-04-16T14:36:03.196Z,91.59
2023-04-16T14:38:32.857Z,91.63
2023-04-16T14:41:01.925Z,91.62
2023-04-16T14:43:55.593Z,91.56
2023-04-16T14:46:25.467Z,91.60
2023-04-16T14:48:54.196Z,91.55
2023-04-16T14:51:22.875Z,91.69
2023-04-16T14:53:51.702Z,91.85
2023-04-16T14:56:20.460Z,91.91
2023-04-16T14:58:49.041Z,91.95
2023-04-16T15:01:43.545Z,91.99
2023-04-16T15:04:39.557Z,92.06
2023-04-16T15:07:08.601Z,91.99
2023-04-16T15:10:07.551Z,92.03
2023-04-16T15:12:36.027Z,92.06
2023-04-16T15:15:07.098Z,92.02
2023-04-16T15:17:36.221Z,91.95
2023-04-16T15:20:11.167Z,92.00
2023-04-16T15:22:40.618Z,92.05
2023-04-16T15:25:09.534Z,92.14
2023-04-16T15:27:39.475Z,92.05
2023-04-16T15:30:08.936Z,92.22
2023-04-16T15:32:37.430Z,92.27
2023-04-16T15:35:07.559Z,92.27
2023-04-16T15:37:37.731Z,92.21
2023-04-16T15:40:08.708Z,92.21
2023-04-16T15:42:37.570Z,92.23
2023-04-16T15:45:06.862Z,92.23
2023-04-16T15:47:37.545Z,92.29
2023-04-16T15:50:08.822Z,92.24
2023-04-16T15:52:39.955Z,92.09
2023-04-16T15:55:09.599Z,92.13
2023-04-16T15:57:38.388Z,92.16
2023-04-16T16:00:17.611Z,92.18
2023-04-16T16:02:47.682Z,92.21
2023-04-16T16:05:17.135Z,92.23
2023-04-16T16:07:45.702Z,92.26
2023-04-16T16:13:49.355Z,92.14
2023-04-16T16:16:18.281Z,92.33
2023-04-16T16:18:47.658Z,92.41
2023-04-16T16:21:16.531Z,92.47
2023-04-16T16:23:45.260Z,92.55
2023-04-16T16:26:14.014Z,92.63
2023-04-16T16:32:17.552Z,92.67
2023-04-16T16:34:46.119Z,92.62
2023-04-16T16:37:22.486Z,92.66
2023-04-16T16:39:52.640Z,92.66
2023-04-16T16:42:21.077Z,92.78
2023-04-16T16:44:49.964Z,92.75
2023-04-16T16:47:44.495Z,92.80
2023-04-16T16:50:13.144Z,92.89
2023-04-16T16:52:42.034Z,92.73
2023-04-16T16:55:11.362Z,92.84
2023-04-16T16:57:41.558Z,92.82
2023-04-16T17:00:15.433Z,92.82
2023-04-16T17:02:44.603Z,92.82
2023-04-16T17:05:13.787Z,92.94
2023-04-16T17:07:44.392Z,92.90
2023-04-16T17:10:20.327Z,92.84
2023-04-16T17:12:49.738Z,92.92
2023-04-16T17:15:21.130Z,92.89
2023-04-16T17:17:50.683Z,92.79
2023-04-16T17:20:20.234Z,92.81
2023-04-16T17:22:48.820Z,92.91
2023-04-16T17:25:17.381Z,92.98
2023-04-16T17:27:47.908Z,93.06
2023-04-16T17:30:17.429Z,92.98
2023-04-16T17:32:45.813Z,92.95
2023-04-16T17:35:14.983Z,92.95
2023-04-16T17:38:36.045Z,92.97
2023-04-16T17:41:05.812Z,93.06
2023-04-16T17:43:34.392Z,93.07
2023-04-16T17:46:28.191Z,93.13
2023-04-16T17:48:58.087Z,93.08
2023-04-16T17:51:27.687Z,93.05
2023-04-16T17:53:56.373Z,93.09
2023-04-16T17:56:25.157Z,93.02
2023-04-16T17:58:53.641Z,93.11
2023-04-16T18:01:22.506Z,93.01
2023-04-16T18:03:51.672Z,92.98
2023-04-16T18:06:20.415Z,93.02
2023-04-16T18:08:48.786Z,93.05
2023-04-16T18:11:23.318Z,93.01
2023-04-16T18:13:54.276Z,93.05
2023-04-16T18:16:23.114Z,93.10
2023-04-16T18:18:51.521Z,93.03
2023-04-16T18:21:20.008Z,93.18
2023-04-16T18:23:48.687Z,93.19
2023-04-16T18:26:20.450Z,93.19
2023-04-16T18:28:49.672Z,93.12
2023-04-16T18:31:21.199Z,93.06
2023-04-16T18:33:57.218Z,93.22
2023-04-16T18:36:27.598Z,93.16
2023-04-16T18:39:01.706Z,93.16
2023-04-16T18:41:31.599Z,93.30
2023-04-16T18:44:00.519Z,93.25
2023-04-16T18:46:57.448Z,93.27
2023-04-16T18:49:28.793Z,93.25
2023-04-16T18:51:57.714Z,93.24
2023-04-16T18:54:26.400Z,93.17
2023-04-16T18:57:04.068Z,93.18
2023-04-16T18:59:32.873Z,93.10
2023-04-16T19:02:01.771Z,93.15
2023-04-16T19:04:30.815Z,93.23
2023-04-16T19:07:00.237Z,93.17
2023-04-16T19:09:28.831Z,93.24
2023-04-16T19:11:59.168Z,93.22
2023-04-16T19:14:28.612Z,93.16
2023-04-16T19:16:58.802Z,93.09
2023-04-16T19:19:27.772Z,93.07
2023-04-16T19:21:56.591Z,93.08
2023-04-16T19:24:25.862Z,93.07
2023-04-16T19:26:54.341Z,93.13
2023-04-16T19:29:23.335Z,93.13
2023-04-16T19:31:52.238Z,93.01
2023-04-16T19:34:20.972Z,93.01
2023-04-16T19:36:49.726Z,92.98
2023-04-16T19:39:18.481Z,93.15
2023-04-16T19:41:47.082Z,93.07
2023-04-16T19:44:16.237Z,93.06
2023-04-16T19:46:44.844Z,93.03
2023-04-16T19:49:13.621Z,93.12
2023-04-16T19:51:42.453Z,93.09
2023-04-16T19:54:11.220Z,93.18
2023-04-16T19:56:39.690Z,93.14
2023-04-16T19:59:08.176Z,93.04
2023-04-16T20:01:37.427Z,93.11
2023-04-16T20:04:07.317Z,93.10
2023-04-16T20:06:36.181Z,93.01
2023-04-16T20:09:05.282Z,92.92
2023-04-16T20:11:59.145Z,93.15
2023-04-16T20:14:27.732Z,93.02
2023-04-16T20:16:56.241Z,92.92
2023-04-16T20:19:31.657Z,92.96
2023-04-16T20:22:00.743Z,93.01
2023-04-16T20:24:31.314Z,92.97
2023-04-16T20:27:00.056Z,93.11
2023-04-16T20:29:31.893Z,93.12
2023-04-16T20:32:06.054Z,93.23
2023-04-16T20:34:34.738Z,93.21
2023-04-16T20:37:03.304Z,93.26
2023-04-16T20:39:34.230Z,93.22
2023-04-16T20:42:04.508Z,93.30
2023-04-16T20:44:40.590Z,93.21
2023-04-16T20:47:11.138Z,93.28
2023-04-16T20:49:40.578Z,93.30
2023-04-16T20:52:09.077Z,93.30
2023-04-16T20:54:37.937Z,93.26
2023-04-16T20:57:06.717Z,93.30
2023-04-16T20:59:37.172Z,93.38
2023-04-16T21:02:07.044Z,93.41
2023-04-16T21:04:35.634Z,93.40
2023-04-16T21:07:04.516Z,93.26
2023-04-16T21:09:33.026Z,93.22
2023-04-16T21:12:04.538Z,93.32
2023-04-16T21:14:33.152Z,93.33
2023-04-16T21:17:01.882Z,93.39
2023-04-16T21:20:20.904Z,93.47
2023-04-16T21:22:57.106Z,93.49
2023-04-16T21:25:26.060Z,93.47
2023-04-16T21:28:35.095Z,93.47
2023-04-16T21:31:03.689Z,93.50
2023-04-16T21:36:49.326Z,93.51
2023-04-16T21:39:56.358Z,93.48
2023-04-16T21:42:42.981Z,93.53
2023-04-16T21:45:11.710Z,93.49
2023-04-16T21:47:40.793Z,93.50
2023-04-16T21:50:28.694Z,93.53
2023-04-16T21:53:23.885Z,93.56
2023-04-16T21:55:52.468Z,93.50
2023-04-16T21:58:36.120Z,93.50
2023-04-16T22:01:09.556Z,93.54
2023-04-16T22:04:26.625Z,93.55
2023-04-16T22:07:17.180Z,93.58
2023-04-16T22:10:04.478Z,93.51
2023-04-16T22:13:02.034Z,93.47
2023-04-16T22:15:56.277Z,93.42
2023-04-16T22:18:50.285Z,93.49
2023-04-16T22:21:18.966Z,93.65
2023-04-16T22:24:18.055Z,93.59
2023-04-16T22:26:58.213Z,93.59
2023-04-16T22:42:48.759Z,93.68
2023-04-16T22:45:34.909Z,93.60
2023-04-16T22:48:27.340Z,93.58
2023-04-16T22:50:56.432Z,93.58
2023-04-16T22:53:52.153Z,93.68
2023-04-16T22:57:45.536Z,93.71
2023-04-16T23:00:46.477Z,93.70
2023-04-16T23:04:07.532Z,93.80
2023-04-16T23:08:24.418Z,93.75
2023-04-16T23:12:03.128Z,93.78
2023-04-16T23:19:59.080Z,93.73
2023-04-16T23:23:20.600Z,93.75
2023-04-16T23:25:56.766Z,93.72
2023-04-16T23:28:30.575Z,93.63
2023-04-16T23:31:43.219Z,93.66
2023-04-16T23:34:43.161Z,93.76
2023-04-16T23:37:57.664Z,93.70
2023-04-16T23:41:27.242Z,93.67
2023-04-16T23:44:53.279Z,93.75
2023-04-16T23:48:14.696Z,93.73
2023-04-16T23:51:39.763Z,93.77
2023-04-16T23:55:12.878Z,93.66
2023-04-16T23:58:31.073Z,93.73
